sensor_id;sensor_type;location;lat;lon;timestamp;pressure;altitude;pressure_sealevel;temperature;humidity
52983;BME280;48698;45.736;13.926;2022-12-31T00:00:14;98476.56;;;9.85;100.00
52983;BME280;48698;45.736;13.926;2022-12-31T00:05:18;98492.91;;;9.98;100.00
52983;BME280;48698;45.736;13.926;2022-12-31T00:10:22;98517.28;;;10.11;100.00
52983;BME280;48698;45.736;13.926;2022-12-31T00:15:26;98474.03;;;9.82;100.00
52983;BME280;48698;45.736;13.926;2022-12-31T00:20:29;98512.72;;;10.14;100.00
52983;BME280;48698;45.736;13.926;2022-12-31T00:25:34;98479.94;;;9.91;100.00
52983;BME280;48698;45.736;13.926;2022-12-31T00:30:38;98517.28;;;10.11;100.00
52983;BME280;48698;45.736;13.926;2022-12-31T00:35:41;98430.09;;;9.49;100.00
52983;BME280;48698;45.736;13.926;2022-12-31T00:40:45;98521.44;;;9.93;100.00
52983;BME280;48698;45.736;13.926;2022-12-31T00:45:48;98503.06;;;9.87;100.00
52983;BME280;48698;45.736;13.926;2022-12-31T00:50:53;98567.50;;;10.17;100.00
52983;BME280;48698;45.736;13.926;2022-12-31T00:56:11;98485.88;;;9.48;100.00
52983;BME280;48698;45.736;13.926;2022-12-31T01:06:21;98593.66;;;10.01;100.00
52983;BME280;48698;45.736;13.926;2022-12-31T01:11:25;98572.28;;;9.79;100.00
52983;BME280;48698;45.736;13.926;2022-12-31T01:16:41;98613.09;;;10.02;100.00
52983;BME280;48698;45.736;13.926;2022-12-31T01:21:46;98613.72;;;10.10;100.00
52983;BME280;48698;45.736;13.926;2022-12-31T01:26:49;98622.81;;;10.03;100.00
52983;BME280;48698;45.736;13.926;2022-12-31T01:31:53;98630.91;;;9.98;100.00
52983;BME280;48698;45.736;13.926;2022-12-31T01:36:57;98604.84;;;9.84;100.00
52983;BME280;48698;45.736;13.926;2022-12-31T01:42:00;98609.31;;;9.84;100.00
52983;BME280;48698;45.736;13.926;2022-12-31T01:47:05;98628.53;;;9.91;100.00
52983;BME280;48698;45.736;13.926;2022-12-31T01:52:22;98506.34;;;9.15;100.00
52983;BME280;48698;45.736;13.926;2022-12-31T01:57:29;98594.31;;;9.55;100.00
52983;BME280;48698;45.736;13.926;2022-12-31T02:02:33;98566.78;;;9.31;100.00
52983;BME280;48698;45.736;13.926;2022-12-31T02:07:38;98657.13;;;9.81;100.00
52983;BME280;48698;45.736;13.926;2022-12-31T02:12:41;98626.44;;;9.46;100.00
52983;BME280;48698;45.736;13.926;2022-12-31T02:34:17;98658.06;;;9.52;100.00
52983;BME280;48698;45.736;13.926;2022-12-31T02:39:22;98633.06;;;9.31;100.00
52983;BME280;48698;45.736;13.926;2022-12-31T02:44:38;98652.25;;;9.40;100.00
52983;BME280;48698;45.736;13.926;2022-12-31T03:00:29;98600.13;;;8.81;100.00
52983;BME280;48698;45.736;13.926;2022-12-31T03:05:52;98634.69;;;9.08;100.00
52983;BME280;48698;45.736;13.926;2022-12-31T03:10:56;98635.97;;;8.95;100.00
52983;BME280;48698;45.736;13.926;2022-12-31T03:16:00;98667.88;;;9.19;100.00
52983;BME280;48698;45.736;13.926;2022-12-31T03:21:10;98672.47;;;9.14;100.00
52983;BME280;48698;45.736;13.926;2022-12-31T03:26:32;98656.66;;;9.11;100.00
52983;BME280;48698;45.736;13.926;2022-12-31T03:31:38;98635.31;;;9.16;100.00
52983;BME280;48698;45.736;13.926;2022-12-31T03:36:42;98630.91;;;9.15;100.00
52983;BME280;48698;45.736;13.926;2022-12-31T03:41:45;98626.16;;;8.97;100.00
52983;BME280;48698;45.736;13.926;2022-12-31T03:46:49;98580.94;;;8.73;100.00
52983;BME280;48698;45.736;13.926;2022-12-31T03:52:02;98629.47;;;9.05;100.00
52983;BME280;48698;45.736;13.926;2022-12-31T03:57:17;98605.06;;;8.94;100.00
52983;BME280;48698;45.736;13.926;2022-12-31T04:02:20;98609.41;;;8.96;100.00
52983;BME280;48698;45.736;13.926;2022-12-31T04:07:30;98627.06;;;8.96;100.00
52983;BME280;48698;45.736;13.926;2022-12-31T04:12:44;98686.41;;;9.21;100.00
52983;BME280;48698;45.736;13.926;2022-12-31T04:17:47;98689.47;;;9.37;100.00
52983;BME280;48698;45.736;13.926;2022-12-31T04:22:51;98670.66;;;9.15;100.00
52983;BME280;48698;45.736;13.926;2022-12-31T04:27:55;98654.53;;;9.22;100.00
52983;BME280;48698;45.736;13.926;2022-12-31T04:32:58;98684.09;;;9.09;100.00
52983;BME280;48698;45.736;13.926;2022-12-31T04:38:02;98591.50;;;8.44;100.00
52983;BME280;48698;45.736;13.926;2022-12-31T04:43:14;98670.34;;;8.96;100.00
52983;BME280;48698;45.736;13.926;2022-12-31T04:48:18;98586.69;;;8.58;100.00
52983;BME280;48698;45.736;13.926;2022-12-31T04:53:22;98688.13;;;9.22;100.00
52983;BME280;48698;45.736;13.926;2022-12-31T04:58:26;98722.88;;;9.42;100.00
52983;BME280;48698;45.736;13.926;2022-12-31T05:03:31;98713.28;;;9.38;100.00
52983;BME280;48698;45.736;13.926;2022-12-31T05:08:35;98740.31;;;9.20;100.00
52983;BME280;48698;45.736;13.926;2022-12-31T05:13:39;98746.16;;;9.32;100.00
52983;BME280;48698;45.736;13.926;2022-12-31T05:18:42;98738.94;;;9.38;100.00
52983;BME280;48698;45.736;13.926;2022-12-31T05:23:46;98746.81;;;9.41;100.00
52983;BME280;48698;45.736;13.926;2022-12-31T05:28:50;98711.53;;;9.08;100.00
52983;BME280;48698;45.736;13.926;2022-12-31T05:33:53;98777.09;;;9.32;100.00
52983;BME280;48698;45.736;13.926;2022-12-31T05:38:56;98722.63;;;8.90;100.00
52983;BME280;48698;45.736;13.926;2022-12-31T05:44:10;98758.06;;;9.18;100.00
52983;BME280;48698;45.736;13.926;2022-12-31T05:49:13;98744.75;;;9.19;100.00
52983;BME280;48698;45.736;13.926;2022-12-31T05:54:17;98723.16;;;9.02;100.00
52983;BME280;48698;45.736;13.926;2022-12-31T05:59:21;98750.41;;;9.07;100.00
52983;BME280;48698;45.736;13.926;2022-12-31T06:04:24;98749.88;;;8.95;100.00
52983;BME280;48698;45.736;13.926;2022-12-31T06:09:29;98798.13;;;9.38;100.00
52983;BME280;48698;45.736;13.926;2022-12-31T06:14:43;98794.72;;;9.34;100.00
52983;BME280;48698;45.736;13.926;2022-12-31T06:19:47;98813.72;;;9.18;100.00
52983;BME280;48698;45.736;13.926;2022-12-31T06:24:50;98785.22;;;8.94;100.00
52983;BME280;48698;45.736;13.926;2022-12-31T06:29:54;98807.50;;;9.19;100.00
52983;BME280;48698;45.736;13.926;2022-12-31T06:34:57;98810.28;;;9.14;100.00
52983;BME280;48698;45.736;13.926;2022-12-31T06:40:01;98710.09;;;8.30;100.00
52983;BME280;48698;45.736;13.926;2022-12-31T06:45:15;98852.28;;;9.28;100.00
52983;BME280;48698;45.736;13.926;2022-12-31T06:50:29;98824.00;;;8.96;100.00
52983;BME280;48698;45.736;13.926;2022-12-31T06:55:33;98817.25;;;8.85;100.00
52983;BME280;48698;45.736;13.926;2022-12-31T07:00:37;98835.41;;;8.98;100.00
52983;BME280;48698;45.736;13.926;2022-12-31T07:05:50;98880.00;;;9.16;100.00
52983;BME280;48698;45.736;13.926;2022-12-31T07:11:02;98849.19;;;9.12;100.00
52983;BME280;48698;45.736;13.926;2022-12-31T07:16:14;98878.00;;;9.26;100.00
52983;BME280;48698;45.736;13.926;2022-12-31T07:21:33;98897.22;;;9.34;100.00
52983;BME280;48698;45.736;13.926;2022-12-31T07:37:41;98892.72;;;9.04;100.00
52983;BME280;48698;45.736;13.926;2022-12-31T07:48:23;98928.59;;;9.17;100.00
52983;BME280;48698;45.736;13.926;2022-12-31T07:53:28;98850.25;;;8.71;100.00
52983;BME280;48698;45.736;13.926;2022-12-31T08:14:56;98969.22;;;9.51;100.00
52983;BME280;48698;45.736;13.926;2022-12-31T08:19:59;98953.09;;;9.26;100.00
52983;BME280;48698;45.736;13.926;2022-12-31T08:25:14;98984.59;;;9.39;100.00
52983;BME280;48698;45.736;13.926;2022-12-31T08:30:20;98903.75;;;8.86;100.00
52983;BME280;48698;45.736;13.926;2022-12-31T08:40:47;99009.31;;;9.41;100.00
52983;BME280;48698;45.736;13.926;2022-12-31T08:45:55;98922.22;;;8.89;100.00
52983;BME280;48698;45.736;13.926;2022-12-31T08:50:59;98890.88;;;8.70;100.00
52983;BME280;48698;45.736;13.926;2022-12-31T08:56:31;98984.03;;;9.26;100.00
52983;BME280;48698;45.736;13.926;2022-12-31T09:02:07;99016.53;;;9.34;100.00
52983;BME280;48698;45.736;13.926;2022-12-31T09:07:23;98987.72;;;9.19;100.00
52983;BME280;48698;45.736;13.926;2022-12-31T09:12:43;99002.22;;;9.41;100.00
52983;BME280;48698;45.736;13.926;2022-12-31T09:17:50;99018.78;;;9.49;100.00
52983;BME280;48698;45.736;13.926;2022-12-31T09:22:55;98911.53;;;8.93;100.00
52983;BME280;48698;45.736;13.926;2022-12-31T09:33:33;99014.84;;;9.65;100.00
52983;BME280;48698;45.736;13.926;2022-12-31T09:50:19;99023.50;;;9.73;100.00
52983;BME280;48698;45.736;13.926;2022-12-31T10:12:05;98986.72;;;9.92;100.00
52983;BME280;48698;45.736;13.926;2022-12-31T10:23:13;98984.25;;;9.84;100.00
52983;BME280;48698;45.736;13.926;2022-12-31T10:34:12;99004.66;;;10.16;100.00
52983;BME280;48698;45.736;13.926;2022-12-31T10:44:50;99002.69;;;10.23;100.00
52983;BME280;48698;45.736;13.926;2022-12-31T11:17:27;98952.22;;;9.92;100.00
52983;BME280;48698;45.736;13.926;2022-12-31T11:39:09;99004.44;;;10.24;100.00
52983;BME280;48698;45.736;13.926;2022-12-31T11:44:31;99028.97;;;10.32;100.00
52983;BME280;48698;45.736;13.926;2022-12-31T11:50:09;98971.47;;;10.00;100.00
52983;BME280;48698;45.736;13.926;2022-12-31T12:00:53;99010.50;;;10.29;100.00
52983;BME280;48698;45.736;13.926;2022-12-31T12:05:58;98960.88;;;9.99;100.00
52983;BME280;48698;45.736;13.926;2022-12-31T12:11:07;99008.28;;;10.14;100.00
52983;BME280;48698;45.736;13.926;2022-12-31T12:16:15;98995.16;;;10.06;100.00
52983;BME280;48698;45.736;13.926;2022-12-31T12:21:24;99009.13;;;10.14;100.00
52983;BME280;48698;45.736;13.926;2022-12-31T12:26:36;98951.22;;;9.96;100.00
52983;BME280;48698;45.736;13.926;2022-12-31T12:32:23;98978.28;;;10.09;100.00
52983;BME280;48698;45.736;13.926;2022-12-31T12:37:37;98948.66;;;9.93;100.00
52983;BME280;48698;45.736;13.926;2022-12-31T12:42:51;98999.19;;;10.21;100.00
52983;BME280;48698;45.736;13.926;2022-12-31T12:48:00;98987.84;;;10.16;100.00
52983;BME280;48698;45.736;13.926;2022-12-31T12:53:28;98988.56;;;10.21;100.00
52983;BME280;48698;45.736;13.926;2022-12-31T13:04:07;98996.34;;;10.28;100.00
52983;BME280;48698;45.736;13.926;2022-12-31T13:15:04;98995.97;;;10.10;100.00
52983;BME280;48698;45.736;13.926;2022-12-31T13:25:35;99003.16;;;10.05;100.00
52983;BME280;48698;45.736;13.926;2022-12-31T13:31:00;98970.00;;;9.88;100.00
52983;BME280;48698;45.736;13.926;2022-12-31T13:36:12;98991.47;;;10.12;100.00
52983;BME280;48698;45.736;13.926;2022-12-31T13:41:28;98993.44;;;10.05;100.00
52983;BME280;48698;45.736;13.926;2022-12-31T13:47:12;98977.16;;;9.85;100.00
52983;BME280;48698;45.736;13.926;2022-12-31T13:52:28;99002.38;;;10.01;100.00
52983;BME280;48698;45.736;13.926;2022-12-31T13:57:45;98996.06;;;10.05;100.00
52983;BME280;48698;45.736;13.926;2022-12-31T14:03:07;99013.06;;;10.00;100.00
52983;BME280;48698;45.736;13.926;2022-12-31T14:08:14;98955.66;;;9.63;100.00
52983;BME280;48698;45.736;13.926;2022-12-31T14:24:47;98985.75;;;9.95;100.00
52983;BME280;48698;45.736;13.926;2022-12-31T14:30:01;98983.16;;;9.93;100.00
52983;BME280;48698;45.736;13.926;2022-12-31T14:35:35;99009.91;;;10.18;100.00
52983;BME280;48698;45.736;13.926;2022-12-31T14:41:01;99004.19;;;10.01;100.00
52983;BME280;48698;45.736;13.926;2022-12-31T14:51:18;99024.31;;;10.08;100.00
52983;BME280;48698;45.736;13.926;2022-12-31T14:56:29;99027.91;;;10.07;100.00
52983;BME280;48698;45.736;13.926;2022-12-31T15:01:43;99022.63;;;10.05;100.00
52983;BME280;48698;45.736;13.926;2022-12-31T15:06:56;99017.41;;;10.02;100.00
52983;BME280;48698;45.736;13.926;2022-12-31T15:12:45;98981.59;;;9.84;100.00
52983;BME280;48698;45.736;13.926;2022-12-31T15:23:38;98987.63;;;9.91;100.00
52983;BME280;48698;45.736;13.926;2022-12-31T15:28:55;98854.66;;;9.06;100.00
52983;BME280;48698;45.736;13.926;2022-12-31T15:34:29;99027.94;;;10.05;100.00
52983;BME280;48698;45.736;13.926;2022-12-31T15:39:38;98988.91;;;9.76;100.00
52983;BME280;48698;45.736;13.926;2022-12-31T15:44:58;99021.19;;;9.94;100.00
52983;BME280;48698;45.736;13.926;2022-12-31T15:50:16;98985.94;;;9.55;100.00
52983;BME280;48698;45.736;13.926;2022-12-31T16:00:23;99054.88;;;9.90;100.00
52983;BME280;48698;45.736;13.926;2022-12-31T16:05:28;99029.63;;;9.75;100.00
52983;BME280;48698;45.736;13.926;2022-12-31T16:10:36;98962.78;;;9.27;100.00
52983;BME280;48698;45.736;13.926;2022-12-31T16:15:59;99060.22;;;9.88;100.00
52983;BME280;48698;45.736;13.926;2022-12-31T16:21:04;99081.28;;;9.95;100.00
52983;BME280;48698;45.736;13.926;2022-12-31T16:26:08;98992.97;;;9.57;100.00
52983;BME280;48698;45.736;13.926;2022-12-31T16:31:17;99017.41;;;9.68;100.00
52983;BME280;48698;45.736;13.926;2022-12-31T16:36:22;99073.13;;;10.02;100.00
52983;BME280;48698;45.736;13.926;2022-12-31T16:41:40;99051.31;;;9.91;100.00
52983;BME280;48698;45.736;13.926;2022-12-31T16:46:43;99086.66;;;9.93;100.00
52983;BME280;48698;45.736;13.926;2022-12-31T16:51:47;98995.44;;;9.28;100.00
52983;BME280;48698;45.736;13.926;2022-12-31T16:56:52;99035.53;;;9.51;100.00
52983;BME280;48698;45.736;13.926;2022-12-31T17:01:58;99002.50;;;9.29;100.00
52983;BME280;48698;45.736;13.926;2022-12-31T17:12:40;99089.75;;;9.75;100.00
52983;BME280;48698;45.736;13.926;2022-12-31T17:18:05;99104.47;;;9.88;100.00
52983;BME280;48698;45.736;13.926;2022-12-31T17:23:21;99120.09;;;10.00;100.00
52983;BME280;48698;45.736;13.926;2022-12-31T17:28:29;99127.25;;;9.97;100.00
52983;BME280;48698;45.736;13.926;2022-12-31T17:33:34;99116.09;;;9.82;100.00
52983;BME280;48698;45.736;13.926;2022-12-31T17:38:37;99121.97;;;9.95;100.00
52983;BME280;48698;45.736;13.926;2022-12-31T17:43:41;99111.84;;;9.75;100.00
52983;BME280;48698;45.736;13.926;2022-12-31T17:48:59;99122.94;;;9.93;100.00
52983;BME280;48698;45.736;13.926;2022-12-31T17:54:15;99123.13;;;9.85;100.00
52983;BME280;48698;45.736;13.926;2022-12-31T17:59:24;99065.09;;;9.36;100.00
52983;BME280;48698;45.736;13.926;2022-12-31T18:04:31;99076.56;;;9.37;100.00
52983;BME280;48698;45.736;13.926;2022-12-31T18:09:35;99123.03;;;9.51;100.00
52983;BME280;48698;45.736;13.926;2022-12-31T18:14:39;99149.25;;;9.65;100.00
52983;BME280;48698;45.736;13.926;2022-12-31T18:19:52;99135.41;;;9.52;100.00
52983;BME280;48698;45.736;13.926;2022-12-31T18:25:21;99096.19;;;9.28;100.00
52983;BME280;48698;45.736;13.926;2022-12-31T18:30:27;99159.19;;;9.57;100.00
52983;BME280;48698;45.736;13.926;2022-12-31T18:35:40;99132.19;;;9.40;100.00
52983;BME280;48698;45.736;13.926;2022-12-31T18:41:06;99087.97;;;9.02;100.00
52983;BME280;48698;45.736;13.926;2022-12-31T18:46:15;99154.88;;;9.51;100.00
52983;BME280;48698;45.736;13.926;2022-12-31T18:51:21;99167.09;;;9.58;100.00
52983;BME280;48698;45.736;13.926;2022-12-31T18:56:33;99182.75;;;9.70;100.00
52983;BME280;48698;45.736;13.926;2022-12-31T19:01:38;99182.03;;;9.62;100.00
52983;BME280;48698;45.736;13.926;2022-12-31T19:06:42;99188.81;;;9.75;100.00
52983;BME280;48698;45.736;13.926;2022-12-31T19:11:45;99194.81;;;9.83;100.00
52983;BME280;48698;45.736;13.926;2022-12-31T19:16:51;99180.09;;;9.70;100.00
52983;BME280;48698;45.736;13.926;2022-12-31T19:21:55;99182.00;;;9.64;100.00
52983;BME280;48698;45.736;13.926;2022-12-31T19:26:59;99195.88;;;9.76;100.00
52983;BME280;48698;45.736;13.926;2022-12-31T19:32:03;99182.59;;;9.76;100.00
52983;BME280;48698;45.736;13.926;2022-12-31T19:37:10;99149.56;;;9.51;100.00
52983;BME280;48698;45.736;13.926;2022-12-31T19:42:26;99137.09;;;9.56;100.00
52983;BME280;48698;45.736;13.926;2022-12-31T19:47:35;99177.94;;;9.86;100.00
52983;BME280;48698;45.736;13.926;2022-12-31T19:52:39;99119.06;;;9.33;100.00
52983;BME280;48698;45.736;13.926;2022-12-31T19:57:42;99172.31;;;9.61;100.00
52983;BME280;48698;45.736;13.926;2022-12-31T20:02:47;99128.31;;;9.54;100.00
52983;BME280;48698;45.736;13.926;2022-12-31T20:07:51;99060.06;;;8.86;100.00
52983;BME280;48698;45.736;13.926;2022-12-31T20:12:54;99126.84;;;9.41;100.00
52983;BME280;48698;45.736;13.926;2022-12-31T20:17:58;99188.22;;;9.63;100.00
52983;BME280;48698;45.736;13.926;2022-12-31T20:23:02;99103.97;;;8.97;100.00
52983;BME280;48698;45.736;13.926;2022-12-31T20:28:06;99128.00;;;9.29;100.00
52983;BME280;48698;45.736;13.926;2022-12-31T20:33:11;99131.47;;;9.31;100.00
52983;BME280;48698;45.736;13.926;2022-12-31T20:38:20;99170.84;;;9.50;100.00
52983;BME280;48698;45.736;13.926;2022-12-31T20:43:24;99166.50;;;9.47;100.00
52983;BME280;48698;45.736;13.926;2022-12-31T20:48:27;99165.47;;;9.51;100.00
52983;BME280;48698;45.736;13.926;2022-12-31T20:53:30;99188.97;;;9.68;100.00
52983;BME280;48698;45.736;13.926;2022-12-31T20:58:44;99184.38;;;9.76;100.00
52983;BME280;48698;45.736;13.926;2022-12-31T21:03:47;99110.25;;;9.31;100.00
52983;BME280;48698;45.736;13.926;2022-12-31T21:09:08;99167.72;;;9.71;100.00
52983;BME280;48698;45.736;13.926;2022-12-31T21:14:16;99184.13;;;9.86;100.00
52983;BME280;48698;45.736;13.926;2022-12-31T21:19:27;99167.47;;;9.80;100.00
52983;BME280;48698;45.736;13.926;2022-12-31T21:24:30;99166.59;;;9.79;100.00
52983;BME280;48698;45.736;13.926;2022-12-31T21:29:33;99169.34;;;9.76;100.00
52983;BME280;48698;45.736;13.926;2022-12-31T21:34:58;99161.63;;;9.66;100.00
52983;BME280;48698;45.736;13.926;2022-12-31T21:40:32;99181.69;;;9.77;100.00
52983;BME280;48698;45.736;13.926;2022-12-31T21:45:36;99137.91;;;9.58;100.00
52983;BME280;48698;45.736;13.926;2022-12-31T21:50:39;99124.94;;;9.48;100.00
52983;BME280;48698;45.736;13.926;2022-12-31T21:55:43;99183.88;;;9.60;100.00
52983;BME280;48698;45.736;13.926;2022-12-31T22:01:06;99143.75;;;9.35;100.00
52983;BME280;48698;45.736;13.926;2022-12-31T22:06:32;99141.69;;;9.48;100.00
52983;BME280;48698;45.736;13.926;2022-12-31T22:11:37;99167.06;;;9.60;100.00
52983;BME280;48698;45.736;13.926;2022-12-31T22:16:41;99199.94;;;9.54;100.00
52983;BME280;48698;45.736;13.926;2022-12-31T22:21:44;99141.16;;;9.34;100.00
52983;BME280;48698;45.736;13.926;2022-12-31T22:26:48;99203.81;;;9.76;100.00
52983;BME280;48698;45.736;13.926;2022-12-31T22:32:01;99133.19;;;9.34;100.00
52983;BME280;48698;45.736;13.926;2022-12-31T22:37:04;99201.16;;;9.76;100.00
52983;BME280;48698;45.736;13.926;2022-12-31T22:42:27;99190.56;;;9.76;100.00
52983;BME280;48698;45.736;13.926;2022-12-31T22:47:34;99176.50;;;9.73;100.00
52983;BME280;48698;45.736;13.926;2022-12-31T22:52:37;99189.66;;;9.77;100.00
52983;BME280;48698;45.736;13.926;2022-12-31T22:57:40;99179.06;;;9.76;100.00
52983;BME280;48698;45.736;13.926;2022-12-31T23:02:44;99156.22;;;9.70;100.00
52983;BME280;48698;45.736;13.926;2022-12-31T23:07:58;99134.94;;;9.72;100.00
52983;BME280;48698;45.736;13.926;2022-12-31T23:13:01;99152.38;;;9.82;100.00
52983;BME280;48698;45.736;13.926;2022-12-31T23:18:23;99106.88;;;9.63;100.00
52983;BME280;48698;45.736;13.926;2022-12-31T23:23:55;99138.38;;;9.77;100.00
52983;BME280;48698;45.736;13.926;2022-12-31T23:28:59;99151.44;;;9.84;100.00
52983;BME280;48698;45.736;13.926;2022-12-31T23:34:03;99146.19;;;9.81;100.00
52983;BME280;48698;45.736;13.926;2022-12-31T23:39:06;99139.56;;;9.64;100.00
52983;BME280;48698;45.736;13.926;2022-12-31T23:44:10;99117.56;;;9.60;100.00
52983;BME280;48698;45.736;13.926;2022-12-31T23:49:16;99131.06;;;9.50;100.00
52983;BME280;48698;45.736;13.926;2022-12-31T23:54:20;98985.38;;;8.68;100.00
52983;BME280;48698;45.736;13.926;2022-12-31T23:59:23;99131.47;;;9.68;100.00
